Terminal Aerodrome Forecast
Issued by NWS

Home | Current Version | Previous Version | Text Only | Print | Product List | Glossary On
Versions: 1 2 3 4 5 6 7 8 9 10 11 12 13 14 15 16 17 18 19 20 21 22 23 24 25 26
000
FTAK31 PANC 111738
TAFAEN
TAF
PAEN 111738Z 1118/1218 03014G23KT P6SM OVC070 WS020/12040KT
     FM120500 03010KT P6SM SCT070 BKN120
     FM121200 02015KT P6SM OVC100=

USA.gov is the U.S. government's official web portal to all federal, state and local government web resources and services.